createdAt,value
2022-09-09T00:02:06.551Z,5.82
2022-09-09T00:04:38.899Z,5.55
2022-09-09T00:07:24.474Z,5.90
2022-09-09T00:09:59.763Z,5.63
2022-09-09T00:12:54.637Z,4.85
2022-09-09T00:15:26.291Z,5.25
2022-09-09T00:18:18.167Z,5.03
2022-09-09T00:21:01.504Z,4.97
2022-09-09T00:23:40.450Z,5.30
2022-09-09T00:26:38.104Z,5.20
2022-09-09T00:29:26.968Z,4.93
2022-09-09T00:32:01.598Z,5.35
2022-09-09T00:34:30.249Z,5.53
2022-09-09T00:36:57.940Z,5.45
2022-09-09T00:39:45.234Z,5.72
2022-09-09T00:42:17.669Z,5.72
2022-09-09T00:45:02.516Z,5.90
2022-09-09T00:47:32.371Z,5.47
2022-09-09T00:50:14.790Z,4.72
2022-09-09T00:53:00.250Z,4.93
2022-09-09T00:55:42.826Z,4.90
2022-09-09T00:58:10.501Z,5.00
2022-09-09T01:00:42.613Z,4.50
2022-09-09T01:03:25.956Z,4.40
2022-09-09T01:06:30.542Z,5.03
2022-09-09T01:09:00.224Z,4.60
2022-09-09T01:11:44.726Z,4.38
2022-09-09T01:14:32.306Z,4.43
2022-09-09T01:17:24.801Z,3.80
2022-09-09T01:20:20.134Z,4.30
2022-09-09T01:23:25.979Z,4.25
2022-09-09T01:26:28.062Z,4.13
2022-09-09T01:28:58.038Z,3.95
2022-09-09T01:31:37.318Z,4.45
2022-09-09T01:34:13.676Z,5.03
2022-09-09T01:36:58.994Z,4.05
2022-09-09T01:39:27.491Z,4.05
2022-09-09T01:42:01.414Z,3.92
2022-09-09T01:44:30.884Z,4.25
2022-09-09T01:46:58.097Z,3.67
2022-09-09T01:49:25.000Z,4.18
2022-09-09T01:51:55.980Z,3.70
2022-09-09T01:54:33.986Z,3.60
2022-09-09T01:57:45.066Z,3.20
2022-09-09T02:00:32.855Z,3.38
2022-09-09T02:03:18.998Z,4.20
2022-09-09T02:06:20.678Z,3.80
2022-09-09T02:08:56.898Z,4.32
2022-09-09T02:11:27.296Z,3.72
2022-09-09T02:14:23.004Z,4.50
2022-09-09T02:17:04.185Z,3.80
2022-09-09T02:19:57.824Z,4.00
2022-09-09T02:22:40.190Z,3.75
2022-09-09T02:25:11.205Z,3.65
2022-09-09T02:27:38.562Z,3.20
2022-09-09T02:30:06.274Z,3.50
2022-09-09T02:32:43.429Z,3.40
2022-09-09T02:35:15.947Z,3.67
2022-09-09T02:37:47.209Z,3.88
2022-09-09T02:40:19.098Z,3.22
2022-09-09T02:42:50.846Z,3.10
2022-09-09T02:45:25.944Z,3.10
2022-09-09T02:48:19.999Z,2.85
2022-09-09T02:51:01.916Z,3.10
2022-09-09T02:53:47.178Z,2.97
2022-09-09T02:56:20.852Z,3.33
2022-09-09T02:58:52.905Z,3.50
2022-09-09T03:01:20.269Z,3.38
2022-09-09T03:03:47.486Z,2.80
2022-09-09T03:06:16.762Z,3.40
2022-09-09T03:08:49.432Z,3.60
2022-09-09T03:11:21.140Z,3.38
2022-09-09T03:13:48.086Z,3.67
2022-09-09T03:16:16.131Z,3.15
2022-09-09T03:18:46.907Z,3.13
2022-09-09T03:21:13.894Z,3.30
2022-09-09T03:23:42.189Z,3.33
2022-09-09T03:26:09.223Z,3.20
2022-09-09T03:28:43.102Z,2.85
2022-09-09T03:31:11.331Z,2.83
2022-09-09T03:33:42.066Z,2.95
2022-09-09T03:36:11.508Z,2.90
2022-09-09T03:38:38.740Z,2.83
2022-09-09T03:41:08.665Z,3.45
2022-09-09T03:43:36.140Z,2.50
2022-09-09T03:46:03.177Z,3.33
2022-09-09T03:48:30.643Z,2.90
2022-09-09T03:51:01.637Z,3.13
2022-09-09T03:53:29.864Z,3.00
2022-09-09T03:56:01.011Z,3.00
2022-09-09T03:58:30.157Z,2.90
2022-09-09T04:01:09.968Z,3.20
2022-09-09T04:03:38.120Z,2.97
2022-09-09T04:06:07.893Z,2.65
2022-09-09T04:08:36.704Z,2.85
2022-09-09T04:11:07.444Z,3.30
2022-09-09T04:13:36.647Z,3.30
2022-09-09T04:16:04.760Z,3.10
2022-09-09T04:18:33.546Z,3.35
2022-09-09T04:21:02.240Z,3.03
2022-09-09T04:23:31.124Z,3.50
2022-09-09T04:26:00.344Z,3.35
2022-09-09T04:28:33.313Z,3.40
2022-09-09T04:31:08.629Z,3.33
2022-09-09T04:33:39.905Z,3.55
2022-09-09T04:36:08.012Z,3.13
2022-09-09T04:38:35.265Z,3.47
2022-09-09T04:41:02.765Z,3.28
2022-09-09T04:43:31.711Z,3.50
2022-09-09T04:46:00.372Z,3.45
2022-09-09T04:48:28.277Z,3.67
2022-09-09T04:51:00.257Z,2.80
2022-09-09T04:53:28.052Z,3.50
2022-09-09T04:56:11.032Z,3.22
2022-09-09T04:58:43.989Z,3.40
2022-09-09T05:01:20.151Z,3.38
2022-09-09T05:03:49.227Z,3.45
2022-09-09T05:06:21.545Z,3.53
2022-09-09T05:08:51.249Z,3.83
2022-09-09T05:11:25.224Z,3.60
2022-09-09T05:13:54.925Z,3.58
2022-09-09T05:16:22.461Z,3.85
2022-09-09T05:18:52.902Z,3.90
2022-09-09T05:21:22.730Z,3.42
2022-09-09T05:23:49.978Z,3.65
2022-09-09T05:26:19.693Z,3.25
2022-09-09T05:28:49.219Z,3.55
2022-09-09T05:31:18.416Z,3.05
2022-09-09T05:33:49.168Z,2.75
2022-09-09T05:36:21.769Z,2.47
2022-09-09T05:38:54.676Z,2.53
2022-09-09T05:41:22.039Z,2.60
2022-09-09T05:43:49.960Z,2.47
2022-09-09T05:46:18.911Z,2.45
2022-09-09T05:48:48.990Z,3.17
2022-09-09T05:51:22.806Z,2.50
2022-09-09T05:53:50.310Z,2.50
2022-09-09T05:56:20.561Z,2.67
2022-09-09T05:58:50.558Z,2.60
2022-09-09T06:01:31.271Z,2.40
2022-09-09T06:03:59.172Z,2.20
2022-09-09T06:06:28.476Z,2.50
2022-09-09T06:08:59.246Z,2.50
2022-09-09T06:11:32.625Z,2.40
2022-09-09T06:14:01.276Z,2.55
2022-09-09T06:16:31.024Z,2.40
2022-09-09T06:18:58.931Z,2.35
2022-09-09T06:21:29.488Z,2.40
2022-09-09T06:24:00.358Z,2.75
2022-09-09T06:26:31.733Z,2.40
2022-09-09T06:29:00.007Z,2.67
2022-09-09T06:31:31.634Z,2.38
2022-09-09T06:34:04.804Z,2.40
2022-09-09T06:36:34.482Z,2.70
2022-09-09T06:39:02.074Z,2.80
2022-09-09T06:41:32.401Z,2.30
2022-09-09T06:43:59.577Z,2.50
2022-09-09T06:46:36.630Z,2.28
2022-09-09T06:49:03.768Z,2.83
2022-09-09T06:51:33.028Z,2.40
2022-09-09T06:54:01.694Z,2.67
2022-09-09T06:56:34.450Z,2.30
2022-09-09T06:59:06.222Z,2.40
2022-09-09T07:01:36.628Z,2.65
2022-09-09T07:04:08.963Z,2.00
2022-09-09T07:06:44.134Z,2.40
2022-09-09T07:09:16.057Z,2.00
2022-09-09T07:11:47.220Z,2.60
2022-09-09T07:14:15.536Z,2.55
2022-09-09T07:16:46.812Z,1.90
2022-09-09T07:19:15.951Z,2.40
2022-09-09T07:21:45.224Z,2.42
2022-09-09T07:24:15.319Z,2.10
2022-09-09T07:26:43.360Z,2.25
2022-09-09T07:29:18.503Z,2.05
2022-09-09T07:31:49.341Z,1.95
2022-09-09T07:34:21.038Z,2.08
2022-09-09T07:36:48.081Z,1.80
2022-09-09T07:39:15.418Z,1.98
2022-09-09T07:41:49.211Z,2.05
2022-09-09T07:44:25.934Z,2.15
2022-09-09T07:47:06.701Z,2.22
2022-09-09T07:49:41.810Z,2.30
2022-09-09T07:52:09.623Z,2.25
2022-09-09T07:54:39.410Z,2.10
2022-09-09T07:57:07.233Z,2.00
2022-09-09T07:59:36.268Z,2.22
2022-09-09T08:02:04.330Z,2.33
2022-09-09T08:04:33.695Z,2.15
2022-09-09T08:07:04.316Z,1.98
2022-09-09T08:09:35.725Z,2.33
2022-09-09T08:12:09.931Z,2.30
2022-09-09T08:14:37.007Z,2.60
2022-09-09T08:17:04.014Z,2.20
2022-09-09T08:19:35.089Z,2.30
2022-09-09T08:22:03.976Z,2.80
2022-09-09T08:24:32.777Z,2.53
2022-09-09T08:27:00.397Z,2.13
2022-09-09T08:29:29.560Z,2.25
2022-09-09T08:31:58.539Z,2.20
2022-09-09T08:34:27.888Z,2.60
2022-09-09T08:36:55.427Z,2.63
2022-09-09T08:39:28.642Z,2.17
2022-09-09T08:42:30.097Z,2.08
2022-09-09T08:45:20.860Z,2.13
2022-09-09T08:48:02.879Z,2.20
2022-09-09T08:50:36.492Z,2.55
2022-09-09T08:53:22.801Z,2.83
2022-09-09T08:56:00.489Z,1.83
2022-09-09T08:58:50.133Z,2.20
2022-09-09T09:01:34.560Z,2.00
2022-09-09T09:04:42.294Z,2.00
2022-09-09T09:07:43.732Z,2.30
2022-09-09T09:10:42.734Z,1.95
2022-09-09T09:13:28.387Z,2.35
2022-09-09T09:16:05.822Z,2.63
2022-09-09T09:18:34.945Z,1.88
2022-09-09T09:21:07.970Z,2.15
2022-09-09T09:24:01.449Z,2.10
2022-09-09T09:26:36.159Z,2.20
2022-09-09T09:29:19.982Z,2.05
2022-09-09T09:31:52.702Z,2.40
2022-09-09T09:34:19.894Z,2.58
2022-09-09T09:36:56.126Z,5.63
2022-09-09T09:42:20.407Z,7.30
2022-09-09T09:44:51.255Z,3.95
2022-09-09T09:47:22.583Z,6.15
2022-09-09T09:49:59.611Z,6.60
2022-09-09T09:52:30.554Z,15.88
2022-09-09T09:55:07.479Z,3.00
2022-09-09T09:57:35.394Z,2.88
2022-09-09T10:00:16.170Z,2.90
2022-09-09T10:02:45.871Z,2.55
2022-09-09T10:05:26.612Z,2.40
2022-09-09T10:08:02.712Z,2.50
2022-09-09T10:10:48.240Z,2.53
2022-09-09T10:13:30.984Z,2.80
2022-09-09T10:16:27.815Z,3.05
2022-09-09T10:19:17.856Z,2.55
2022-09-09T10:22:20.002Z,2.80
2022-09-09T10:25:31.432Z,2.80
2022-09-09T10:28:16.713Z,3.03
2022-09-09T10:31:25.385Z,3.70
2022-09-09T10:34:21.006Z,3.53
2022-09-09T10:36:51.391Z,3.20
2022-09-09T10:39:27.485Z,2.78
2022-09-09T10:42:10.268Z,2.50
2022-09-09T10:45:14.153Z,2.25
2022-09-09T10:47:51.172Z,2.60
2022-09-09T10:51:03.939Z,3.03
2022-09-09T10:53:58.130Z,3.42
2022-09-09T10:56:26.430Z,3.40
2022-09-09T10:58:58.000Z,3.50
2022-09-09T11:01:48.876Z,3.35
2022-09-09T11:04:55.144Z,3.75
2022-09-09T11:07:48.870Z,3.50
2022-09-09T11:10:25.333Z,3.30
2022-09-09T11:12:59.282Z,3.20
2022-09-09T11:15:37.443Z,3.10
2022-09-09T11:18:07.521Z,3.40
2022-09-09T11:20:35.931Z,3.15
2022-09-09T11:23:22.110Z,3.38
2022-09-09T11:26:00.262Z,3.42
2022-09-09T11:29:05.640Z,2.60
2022-09-09T11:31:59.232Z,2.70
2022-09-09T11:34:54.720Z,2.58
2022-09-09T11:37:47.506Z,2.78
2022-09-09T11:40:26.568Z,2.50
2022-09-09T11:43:13.738Z,1.90
2022-09-09T11:45:42.733Z,2.25
2022-09-09T11:48:38.554Z,1.80
2022-09-09T11:51:11.022Z,2.13
2022-09-09T11:53:56.012Z,1.90
2022-09-09T11:56:32.420Z,1.77
2022-09-09T11:59:03.050Z,1.85
2022-09-09T12:01:34.429Z,1.92
2022-09-09T12:04:27.276Z,2.20
2022-09-09T12:07:22.733Z,1.83
2022-09-09T12:10:04.728Z,2.00
2022-09-09T12:12:34.545Z,1.73
2022-09-09T12:15:04.394Z,2.15
2022-09-09T12:17:38.074Z,1.92
2022-09-09T12:20:16.116Z,1.85
2022-09-09T12:22:57.736Z,1.55
2022-09-09T12:25:39.203Z,1.65
2022-09-09T12:28:17.649Z,1.70
2022-09-09T12:31:08.840Z,1.55
2022-09-09T12:33:38.840Z,1.65
2022-09-09T12:36:12.688Z,1.20
2022-09-09T12:38:41.767Z,1.50
2022-09-09T12:41:24.407Z,1.60
2022-09-09T12:43:52.968Z,1.50
2022-09-09T12:46:34.442Z,1.40
2022-09-09T12:49:01.414Z,1.30
2022-09-09T12:51:34.110Z,1.30
2022-09-09T12:54:01.527Z,1.90
2022-09-09T12:56:31.636Z,1.40
2022-09-09T12:58:59.582Z,1.52
2022-09-09T13:01:29.548Z,1.20
2022-09-09T13:03:57.593Z,1.67
2022-09-09T13:06:30.114Z,1.55
2022-09-09T13:08:59.969Z,1.40
2022-09-09T13:11:29.629Z,1.30
2022-09-09T13:13:58.454Z,1.42
2022-09-09T13:16:39.102Z,1.63
2022-09-09T13:19:17.531Z,1.50
2022-09-09T13:21:44.951Z,1.40
2022-09-09T13:24:32.340Z,1.60
2022-09-09T13:27:04.912Z,1.63
2022-09-09T13:29:33.577Z,1.77
2022-09-09T13:32:19.217Z,1.67
2022-09-09T13:34:57.949Z,1.80
2022-09-09T13:37:35.741Z,1.92
2022-09-09T13:40:03.838Z,1.80
2022-09-09T13:42:36.367Z,1.88
2022-09-09T13:45:05.512Z,1.98
2022-09-09T13:47:37.387Z,1.45
2022-09-09T13:50:21.895Z,1.17
2022-09-09T13:52:54.426Z,1.50
2022-09-09T13:55:26.650Z,1.50
2022-09-09T13:57:58.637Z,1.38
2022-09-09T14:00:26.210Z,1.40
2022-09-09T14:02:55.881Z,1.50
2022-09-09T14:05:23.329Z,1.45
2022-09-09T14:07:53.223Z,1.50
2022-09-09T14:10:20.804Z,1.45
2022-09-09T14:12:47.797Z,1.40
2022-09-09T14:15:15.490Z,1.20
2022-09-09T14:17:42.740Z,1.30
2022-09-09T14:20:12.743Z,1.23
2022-09-09T14:22:40.297Z,1.05
2022-09-09T14:25:07.646Z,1.48
2022-09-09T14:27:34.706Z,1.20
2022-09-09T14:30:01.897Z,1.17
2022-09-09T14:32:30.154Z,1.35
2022-09-09T14:34:57.060Z,1.38
2022-09-09T14:37:23.965Z,1.10
2022-09-09T14:39:51.886Z,1.23
2022-09-09T14:42:19.182Z,1.40
2022-09-09T14:44:45.979Z,2.25
2022-09-09T14:47:12.807Z,1.40
2022-09-09T14:49:41.577Z,1.35
2022-09-09T14:52:10.847Z,1.25
2022-09-09T14:54:37.796Z,2.50
2022-09-09T14:57:04.735Z,1.67
2022-09-09T14:59:31.540Z,1.42
2022-09-09T15:01:58.365Z,1.63
2022-09-09T15:04:25.622Z,1.48
2022-09-09T15:06:54.237Z,1.30
2022-09-09T15:09:21.153Z,1.70
2022-09-09T15:11:47.976Z,2.15
2022-09-09T15:14:14.773Z,1.70
2022-09-09T15:16:42.268Z,1.85
2022-09-09T15:19:10.250Z,1.83
2022-09-09T15:21:39.046Z,2.00
2022-09-09T15:24:09.139Z,1.50
2022-09-09T15:26:39.422Z,1.90
2022-09-09T15:29:06.889Z,1.90
2022-09-09T15:31:33.737Z,1.92
2022-09-09T15:34:03.475Z,1.98
2022-09-09T15:36:35.634Z,2.00
2022-09-09T15:39:04.433Z,1.60
2022-09-09T15:41:32.645Z,1.80
2022-09-09T15:44:00.193Z,1.50
2022-09-09T15:46:29.893Z,1.40
2022-09-09T15:49:25.789Z,2.15
2022-09-09T15:51:58.570Z,2.05
2022-09-09T15:54:27.227Z,3.30
2022-09-09T15:56:59.690Z,3.60
2022-09-09T15:59:29.189Z,3.30
2022-09-09T16:01:56.543Z,3.20
2022-09-09T16:04:25.401Z,2.75
2022-09-09T16:06:53.668Z,2.08
2022-09-09T16:09:21.176Z,1.83
2022-09-09T16:11:48.652Z,1.70
2022-09-09T16:14:19.262Z,1.98
2022-09-09T16:16:46.204Z,2.28
2022-09-09T16:19:13.926Z,2.28
2022-09-09T16:21:47.794Z,2.30
2022-09-09T16:24:18.767Z,2.20
2022-09-09T16:26:50.222Z,2.15
2022-09-09T16:29:19.041Z,2.33
2022-09-09T16:31:47.638Z,2.20
2022-09-09T16:34:15.713Z,2.25
2022-09-09T16:36:43.700Z,2.50
2022-09-09T16:39:16.824Z,2.30
2022-09-09T16:41:45.669Z,2.20
2022-09-09T16:44:14.068Z,2.65
2022-09-09T16:46:43.103Z,2.70
2022-09-09T16:49:12.800Z,2.50
2022-09-09T16:51:48.448Z,2.17
2022-09-09T16:54:18.000Z,2.10
2022-09-09T16:56:46.513Z,2.72
2022-09-09T16:59:22.053Z,2.22
2022-09-09T17:01:51.192Z,1.98
2022-09-09T17:04:21.730Z,2.30
2022-09-09T17:06:50.694Z,2.05
2022-09-09T17:09:18.437Z,2.33
2022-09-09T17:11:46.369Z,2.40
2022-09-09T17:14:17.678Z,2.15
2022-09-09T17:16:45.051Z,2.45
2022-09-09T17:19:12.964Z,2.53
2022-09-09T17:22:00.156Z,2.85
2022-09-09T17:24:28.385Z,2.22
2022-09-09T17:26:55.439Z,2.53
2022-09-09T17:29:22.950Z,2.47
2022-09-09T17:31:49.735Z,2.78
2022-09-09T17:34:16.665Z,3.08
2022-09-09T17:36:43.497Z,2.47
2022-09-09T17:39:10.314Z,2.90
2022-09-09T17:41:39.379Z,2.50
2022-09-09T17:46:42.062Z,2.85
2022-09-09T17:49:12.820Z,2.85
2022-09-09T17:51:42.367Z,2.72
2022-09-09T17:54:13.103Z,2.80
2022-09-09T17:56:41.823Z,2.92
2022-09-09T17:59:10.836Z,2.80
2022-09-09T18:01:40.955Z,3.00
2022-09-09T18:04:09.813Z,3.13
2022-09-09T18:06:42.357Z,2.50
2022-09-09T18:09:13.317Z,3.20
2022-09-09T18:11:45.645Z,2.65
2022-09-09T18:14:21.630Z,2.55
2022-09-09T18:16:49.500Z,2.70
2022-09-09T18:19:19.503Z,2.75
2022-09-09T18:21:47.003Z,2.45
2022-09-09T18:24:16.083Z,2.95
2022-09-09T18:26:43.750Z,3.30
2022-09-09T18:29:12.932Z,3.85
2022-09-09T18:31:41.853Z,3.50
2022-09-09T18:34:11.698Z,3.30
2022-09-09T18:36:44.904Z,3.38
2022-09-09T18:39:13.890Z,2.95
2022-09-09T18:41:44.897Z,2.70
2022-09-09T18:44:16.650Z,3.47
2022-09-09T18:46:44.837Z,3.45
2022-09-09T18:49:12.633Z,3.15
2022-09-09T18:51:42.704Z,3.33
2022-09-09T18:54:16.100Z,3.20
2022-09-09T18:56:43.762Z,3.50
2022-09-09T18:59:14.106Z,3.40
2022-09-09T19:01:41.080Z,3.38
2022-09-09T19:04:08.692Z,3.58
2022-09-09T19:06:40.224Z,2.90
2022-09-09T19:09:11.252Z,1.77
2022-09-09T19:11:38.865Z,1.40
2022-09-09T19:14:08.362Z,1.60
2022-09-09T19:16:36.318Z,1.30
2022-09-09T19:19:06.253Z,1.30
2022-09-09T19:21:35.682Z,1.20
2022-09-09T19:24:08.459Z,1.10
2022-09-09T19:26:40.622Z,1.25
2022-09-09T19:29:10.282Z,1.10
2022-09-09T19:31:38.196Z,1.27
2022-09-09T19:34:05.346Z,1.25
2022-09-09T19:36:32.575Z,1.27
2022-09-09T19:39:00.284Z,1.08
2022-09-09T19:41:28.353Z,1.13
2022-09-09T19:44:01.634Z,1.00
2022-09-09T19:46:34.635Z,1.48
2022-09-09T19:49:02.382Z,0.90
2022-09-09T19:51:30.788Z,0.95
2022-09-09T19:54:05.365Z,1.10
2022-09-09T19:56:34.451Z,1.07
2022-09-09T19:59:01.734Z,1.45
2022-09-09T20:01:35.432Z,0.93
2022-09-09T20:04:05.990Z,0.93
2022-09-09T20:06:35.707Z,1.15
2022-09-09T20:09:04.273Z,1.30
2022-09-09T20:11:31.037Z,1.27
2022-09-09T20:13:58.197Z,1.27
2022-09-09T20:16:28.938Z,1.30
2022-09-09T20:18:57.735Z,1.60
2022-09-09T20:21:27.508Z,1.40
2022-09-09T20:23:55.774Z,1.40
2022-09-09T20:26:31.054Z,1.40
2022-09-09T20:28:58.370Z,1.50
2022-09-09T20:31:27.648Z,1.20
2022-09-09T20:33:56.378Z,1.50
2022-09-09T20:36:29.986Z,1.48
2022-09-09T20:38:59.642Z,1.30
2022-09-09T20:41:29.930Z,1.20
2022-09-09T20:43:57.839Z,1.25
2022-09-09T20:46:27.513Z,1.70
2022-09-09T20:49:02.640Z,1.42
2022-09-09T20:51:33.118Z,1.50
2022-09-09T20:54:03.832Z,1.50
2022-09-09T20:56:33.252Z,1.55
2022-09-09T20:59:01.366Z,1.65
2022-09-09T21:01:28.308Z,1.83
2022-09-09T21:03:55.587Z,1.90
2022-09-09T21:06:22.848Z,1.85
2022-09-09T21:08:49.961Z,2.00
2022-09-09T21:11:17.587Z,2.10
2022-09-09T21:13:44.829Z,1.80
2022-09-09T21:16:15.466Z,1.80
2022-09-09T21:18:44.391Z,2.13
2022-09-09T21:21:11.731Z,2.17
2022-09-09T21:23:38.669Z,2.55
2022-09-09T21:26:07.630Z,2.40
2022-09-09T21:28:36.056Z,2.45
2022-09-09T21:31:05.613Z,2.22
2022-09-09T21:33:34.339Z,2.30
2022-09-09T21:36:05.941Z,2.38
2022-09-09T21:38:34.006Z,2.10
2022-09-09T21:41:05.835Z,2.58
2022-09-09T21:43:33.697Z,2.67
2022-09-09T21:46:03.940Z,2.00
2022-09-09T21:48:31.550Z,2.05
2022-09-09T21:51:06.468Z,2.00
2022-09-09T21:53:34.270Z,2.30
2022-09-09T21:56:10.453Z,2.30
2022-09-09T21:58:38.270Z,2.70
2022-09-09T22:01:12.216Z,2.45
2022-09-09T22:03:39.403Z,2.45
2022-09-09T22:06:08.507Z,2.50
2022-09-09T22:08:36.582Z,2.40
2022-09-09T22:11:23.338Z,2.35
2022-09-09T22:13:50.632Z,2.35
2022-09-09T22:16:19.983Z,2.35
2022-09-09T22:18:51.862Z,2.28
2022-09-09T22:21:19.262Z,2.25
2022-09-09T22:23:53.171Z,2.22
2022-09-09T22:26:20.456Z,2.08
2022-09-09T22:28:47.381Z,2.08
2022-09-09T22:31:14.378Z,2.28
2022-09-09T22:33:41.451Z,1.95
2022-09-09T22:36:08.780Z,2.00
2022-09-09T22:38:36.515Z,1.75
2022-09-09T22:41:05.164Z,1.70
2022-09-09T22:43:35.144Z,1.80
2022-09-09T22:46:02.922Z,2.03
2022-09-09T22:48:38.246Z,2.00
2022-09-09T22:51:11.153Z,2.15
2022-09-09T22:53:40.776Z,1.92
2022-09-09T22:56:12.027Z,2.22
2022-09-09T22:58:40.903Z,2.10
2022-09-09T23:01:11.402Z,1.90
2022-09-09T23:03:38.376Z,1.75
2022-09-09T23:06:05.495Z,2.25
2022-09-09T23:08:37.824Z,1.80
2022-09-09T23:11:11.039Z,2.08
2022-09-09T23:13:43.225Z,2.20
2022-09-09T23:16:15.848Z,2.38
2022-09-09T23:18:43.623Z,2.25
2022-09-09T23:21:12.749Z,2.60
2022-09-09T23:23:44.245Z,2.60
2022-09-09T23:26:13.813Z,2.80
2022-09-09T23:28:43.763Z,2.35
2022-09-09T23:31:15.832Z,2.42
2022-09-09T23:33:43.679Z,2.85
2022-09-09T23:36:16.593Z,3.35
2022-09-09T23:38:44.192Z,2.75
2022-09-09T23:41:14.581Z,2.80
2022-09-09T23:43:43.538Z,2.45
2022-09-09T23:46:13.486Z,2.55
2022-09-09T23:48:41.088Z,2.38
2022-09-09T23:51:17.377Z,2.67
2022-09-09T23:53:47.150Z,2.45
2022-09-09T23:56:14.374Z,2.90
2022-09-09T23:58:42.065Z,2.20
